sensor_id;sensor_type;location;lat;lon;timestamp;P1;durP1;ratioP1;P2;durP2;ratioP2
39314;SDS011;28703;44.412;11.918;2023-06-24T00:00:14;18.42;;;3.95;;
39314;SDS011;28703;44.412;11.918;2023-06-24T00:02:44;14.43;;;3.53;;
39314;SDS011;28703;44.412;11.918;2023-06-24T00:05:10;10.57;;;3.58;;
39314;SDS011;28703;44.412;11.918;2023-06-24T00:07:36;5.57;;;3.30;;
39314;SDS011;28703;44.412;11.918;2023-06-24T00:10:10;7.70;;;3.70;;
39314;SDS011;28703;44.412;11.918;2023-06-24T00:12:39;10.05;;;3.22;;
39314;SDS011;28703;44.412;11.918;2023-06-24T00:15:07;15.55;;;3.70;;
39314;SDS011;28703;44.412;11.918;2023-06-24T00:17:37;11.00;;;3.63;;
39314;SDS011;28703;44.412;11.918;2023-06-24T00:20:03;9.23;;;3.60;;
39314;SDS011;28703;44.412;11.918;2023-06-24T00:22:31;5.55;;;3.10;;
39314;SDS011;28703;44.412;11.918;2023-06-24T00:24:56;9.75;;;3.28;;
39314;SDS011;28703;44.412;11.918;2023-06-24T00:27:22;8.68;;;3.38;;
39314;SDS011;28703;44.412;11.918;2023-06-24T00:29:48;5.95;;;3.35;;
39314;SDS011;28703;44.412;11.918;2023-06-24T00:32:15;9.00;;;3.92;;
39314;SDS011;28703;44.412;11.918;2023-06-24T00:34:41;8.10;;;2.72;;
39314;SDS011;28703;44.412;11.918;2023-06-24T00:37:09;12.43;;;3.53;;
39314;SDS011;28703;44.412;11.918;2023-06-24T00:39:35;7.75;;;3.35;;
39314;SDS011;28703;44.412;11.918;2023-06-24T00:42:01;13.25;;;3.78;;
39314;SDS011;28703;44.412;11.918;2023-06-24T00:44:27;9.48;;;3.10;;
39314;SDS011;28703;44.412;11.918;2023-06-24T00:46:53;8.63;;;3.90;;
39314;SDS011;28703;44.412;11.918;2023-06-24T00:49:19;8.50;;;3.67;;
39314;SDS011;28703;44.412;11.918;2023-06-24T00:51:45;15.05;;;3.70;;
39314;SDS011;28703;44.412;11.918;2023-06-24T00:54:16;14.05;;;3.95;;
39314;SDS011;28703;44.412;11.918;2023-06-24T00:56:42;15.75;;;3.97;;
39314;SDS011;28703;44.412;11.918;2023-06-24T00:59:09;14.13;;;3.90;;
39314;SDS011;28703;44.412;11.918;2023-06-24T01:01:38;11.55;;;3.58;;
39314;SDS011;28703;44.412;11.918;2023-06-24T01:04:06;15.25;;;4.20;;
39314;SDS011;28703;44.412;11.918;2023-06-24T01:06:34;17.58;;;3.72;;
39314;SDS011;28703;44.412;11.918;2023-06-24T01:09:01;12.68;;;3.92;;
39314;SDS011;28703;44.412;11.918;2023-06-24T01:11:29;11.05;;;3.60;;
39314;SDS011;28703;44.412;11.918;2023-06-24T01:13:56;7.60;;;3.42;;
39314;SDS011;28703;44.412;11.918;2023-06-24T01:19:37;7.32;;;3.15;;
39314;SDS011;28703;44.412;11.918;2023-06-24T01:25:02;16.80;;;5.30;;
39314;SDS011;28703;44.412;11.918;2023-06-24T01:33:01;10.18;;;3.67;;
39314;SDS011;28703;44.412;11.918;2023-06-24T01:35:31;17.73;;;4.10;;
39314;SDS011;28703;44.412;11.918;2023-06-24T01:38:03;11.77;;;3.60;;
39314;SDS011;28703;44.412;11.918;2023-06-24T01:40:44;12.93;;;3.85;;
39314;SDS011;28703;44.412;11.918;2023-06-24T01:43:13;15.32;;;4.32;;
39314;SDS011;28703;44.412;11.918;2023-06-24T01:45:41;8.57;;;4.25;;
39314;SDS011;28703;44.412;11.918;2023-06-24T01:48:16;8.43;;;2.97;;
39314;SDS011;28703;44.412;11.918;2023-06-24T01:51:01;13.77;;;4.20;;
39314;SDS011;28703;44.412;11.918;2023-06-24T01:53:42;11.57;;;3.72;;
39314;SDS011;28703;44.412;11.918;2023-06-24T01:56:14;13.65;;;4.15;;
39314;SDS011;28703;44.412;11.918;2023-06-24T01:58:41;12.55;;;4.45;;
39314;SDS011;28703;44.412;11.918;2023-06-24T02:01:08;23.77;;;6.50;;
39314;SDS011;28703;44.412;11.918;2023-06-24T02:03:35;6.55;;;3.17;;
39314;SDS011;28703;44.412;11.918;2023-06-24T02:06:03;11.40;;;3.55;;
39314;SDS011;28703;44.412;11.918;2023-06-24T02:08:32;19.98;;;4.30;;
39314;SDS011;28703;44.412;11.918;2023-06-24T02:11:00;8.73;;;4.10;;
39314;SDS011;28703;44.412;11.918;2023-06-24T02:13:31;12.23;;;4.03;;
39314;SDS011;28703;44.412;11.918;2023-06-24T02:16:01;13.05;;;3.75;;
39314;SDS011;28703;44.412;11.918;2023-06-24T02:18:29;19.48;;;4.20;;
39314;SDS011;28703;44.412;11.918;2023-06-24T02:20:55;7.43;;;3.58;;
39314;SDS011;28703;44.412;11.918;2023-06-24T02:23:22;12.73;;;3.75;;
39314;SDS011;28703;44.412;11.918;2023-06-24T02:25:49;9.65;;;3.40;;
39314;SDS011;28703;44.412;11.918;2023-06-24T02:28:15;13.07;;;3.70;;
39314;SDS011;28703;44.412;11.918;2023-06-24T02:30:43;13.23;;;4.50;;
39314;SDS011;28703;44.412;11.918;2023-06-24T02:33:10;7.43;;;3.60;;
39314;SDS011;28703;44.412;11.918;2023-06-24T02:35:37;9.90;;;3.63;;
39314;SDS011;28703;44.412;11.918;2023-06-24T02:38:03;15.32;;;4.22;;
39314;SDS011;28703;44.412;11.918;2023-06-24T02:40:29;10.30;;;4.10;;
39314;SDS011;28703;44.412;11.918;2023-06-24T02:42:56;7.35;;;3.92;;
39314;SDS011;28703;44.412;11.918;2023-06-24T02:45:24;6.55;;;3.55;;
39314;SDS011;28703;44.412;11.918;2023-06-24T02:47:50;4.82;;;3.20;;
39314;SDS011;28703;44.412;11.918;2023-06-24T02:50:17;11.38;;;3.95;;
39314;SDS011;28703;44.412;11.918;2023-06-24T02:52:44;14.38;;;4.00;;
39314;SDS011;28703;44.412;11.918;2023-06-24T02:55:14;6.85;;;3.60;;
39314;SDS011;28703;44.412;11.918;2023-06-24T02:57:40;9.95;;;3.63;;
39314;SDS011;28703;44.412;11.918;2023-06-24T03:00:27;4.55;;;3.20;;
39314;SDS011;28703;44.412;11.918;2023-06-24T03:03:07;10.63;;;3.67;;
39314;SDS011;28703;44.412;11.918;2023-06-24T03:05:36;10.23;;;3.58;;
39314;SDS011;28703;44.412;11.918;2023-06-24T03:08:04;11.23;;;3.92;;
39314;SDS011;28703;44.412;11.918;2023-06-24T03:10:31;20.77;;;4.07;;
39314;SDS011;28703;44.412;11.918;2023-06-24T03:12:57;9.23;;;3.75;;
39314;SDS011;28703;44.412;11.918;2023-06-24T03:15:31;12.38;;;4.55;;
39314;SDS011;28703;44.412;11.918;2023-06-24T03:18:00;7.43;;;3.95;;
39314;SDS011;28703;44.412;11.918;2023-06-24T03:20:26;8.68;;;3.78;;
39314;SDS011;28703;44.412;11.918;2023-06-24T03:22:54;3.80;;;2.47;;
39314;SDS011;28703;44.412;11.918;2023-06-24T03:25:22;8.68;;;3.47;;
39314;SDS011;28703;44.412;11.918;2023-06-24T03:27:48;13.85;;;4.15;;
39314;SDS011;28703;44.412;11.918;2023-06-24T03:30:14;5.25;;;2.63;;
39314;SDS011;28703;44.412;11.918;2023-06-24T03:32:42;9.13;;;4.05;;
39314;SDS011;28703;44.412;11.918;2023-06-24T03:35:13;9.07;;;4.28;;
39314;SDS011;28703;44.412;11.918;2023-06-24T03:37:39;11.73;;;4.95;;
39314;SDS011;28703;44.412;11.918;2023-06-24T03:40:05;14.20;;;4.80;;
39314;SDS011;28703;44.412;11.918;2023-06-24T03:42:32;8.27;;;3.88;;
39314;SDS011;28703;44.412;11.918;2023-06-24T03:44:58;10.20;;;4.20;;
39314;SDS011;28703;44.412;11.918;2023-06-24T03:47:24;11.25;;;3.85;;
39314;SDS011;28703;44.412;11.918;2023-06-24T03:49:50;11.55;;;4.20;;
39314;SDS011;28703;44.412;11.918;2023-06-24T03:52:17;12.05;;;4.78;;
39314;SDS011;28703;44.412;11.918;2023-06-24T03:54:43;5.45;;;3.42;;
39314;SDS011;28703;44.412;11.918;2023-06-24T03:57:09;4.60;;;3.08;;
39314;SDS011;28703;44.412;11.918;2023-06-24T03:59:35;4.80;;;3.63;;
39314;SDS011;28703;44.412;11.918;2023-06-24T04:02:01;8.48;;;3.97;;
39314;SDS011;28703;44.412;11.918;2023-06-24T04:04:27;8.05;;;3.97;;
39314;SDS011;28703;44.412;11.918;2023-06-24T04:06:54;21.73;;;4.75;;
39314;SDS011;28703;44.412;11.918;2023-06-24T04:09:20;12.73;;;4.45;;
39314;SDS011;28703;44.412;11.918;2023-06-24T04:11:47;13.90;;;4.80;;
39314;SDS011;28703;44.412;11.918;2023-06-24T04:14:13;8.45;;;4.68;;
39314;SDS011;28703;44.412;11.918;2023-06-24T04:16:39;8.18;;;4.30;;
39314;SDS011;28703;44.412;11.918;2023-06-24T04:19:05;5.63;;;4.00;;
39314;SDS011;28703;44.412;11.918;2023-06-24T04:21:31;13.95;;;4.50;;
39314;SDS011;28703;44.412;11.918;2023-06-24T04:23:57;11.80;;;4.80;;
39314;SDS011;28703;44.412;11.918;2023-06-24T04:26:23;11.95;;;4.28;;
39314;SDS011;28703;44.412;11.918;2023-06-24T04:28:49;6.57;;;4.30;;
39314;SDS011;28703;44.412;11.918;2023-06-24T04:31:15;13.98;;;4.47;;
39314;SDS011;28703;44.412;11.918;2023-06-24T04:33:42;17.20;;;4.65;;
39314;SDS011;28703;44.412;11.918;2023-06-24T04:36:08;16.88;;;4.95;;
39314;SDS011;28703;44.412;11.918;2023-06-24T04:38:35;14.65;;;4.75;;
39314;SDS011;28703;44.412;11.918;2023-06-24T04:41:02;10.88;;;4.80;;
39314;SDS011;28703;44.412;11.918;2023-06-24T04:43:29;11.10;;;4.35;;
39314;SDS011;28703;44.412;11.918;2023-06-24T04:45:54;8.93;;;4.45;;
39314;SDS011;28703;44.412;11.918;2023-06-24T04:48:24;7.18;;;4.13;;
39314;SDS011;28703;44.412;11.918;2023-06-24T04:50:51;13.02;;;4.63;;
39314;SDS011;28703;44.412;11.918;2023-06-24T04:53:18;13.95;;;4.95;;
39314;SDS011;28703;44.412;11.918;2023-06-24T04:55:44;18.17;;;5.28;;
39314;SDS011;28703;44.412;11.918;2023-06-24T04:58:10;12.05;;;5.28;;
39314;SDS011;28703;44.412;11.918;2023-06-24T05:00:36;14.70;;;5.65;;
39314;SDS011;28703;44.412;11.918;2023-06-24T05:03:02;13.90;;;6.03;;
39314;SDS011;28703;44.412;11.918;2023-06-24T05:05:27;13.73;;;5.97;;
39314;SDS011;28703;44.412;11.918;2023-06-24T05:07:53;16.65;;;6.68;;
39314;SDS011;28703;44.412;11.918;2023-06-24T05:10:19;15.32;;;8.05;;
39314;SDS011;28703;44.412;11.918;2023-06-24T05:12:45;18.15;;;7.65;;
39314;SDS011;28703;44.412;11.918;2023-06-24T05:15:11;10.68;;;7.07;;
39314;SDS011;28703;44.412;11.918;2023-06-24T05:17:37;16.15;;;6.13;;
39314;SDS011;28703;44.412;11.918;2023-06-24T05:20:04;16.88;;;6.43;;
39314;SDS011;28703;44.412;11.918;2023-06-24T05:22:30;25.75;;;6.53;;
39314;SDS011;28703;44.412;11.918;2023-06-24T05:24:56;21.42;;;6.95;;
39314;SDS011;28703;44.412;11.918;2023-06-24T05:27:22;14.85;;;5.65;;
39314;SDS011;28703;44.412;11.918;2023-06-24T05:29:48;10.25;;;5.72;;
39314;SDS011;28703;44.412;11.918;2023-06-24T05:32:14;12.35;;;6.43;;
39314;SDS011;28703;44.412;11.918;2023-06-24T05:34:42;15.88;;;6.10;;
39314;SDS011;28703;44.412;11.918;2023-06-24T05:37:08;10.40;;;6.45;;
39314;SDS011;28703;44.412;11.918;2023-06-24T05:39:34;15.20;;;6.90;;
39314;SDS011;28703;44.412;11.918;2023-06-24T05:42:00;15.00;;;7.28;;
39314;SDS011;28703;44.412;11.918;2023-06-24T05:44:26;22.17;;;7.55;;
39314;SDS011;28703;44.412;11.918;2023-06-24T05:46:52;17.92;;;8.38;;
39314;SDS011;28703;44.412;11.918;2023-06-24T05:49:17;17.48;;;8.30;;
39314;SDS011;28703;44.412;11.918;2023-06-24T05:51:43;10.85;;;7.28;;
39314;SDS011;28703;44.412;11.918;2023-06-24T05:54:09;13.32;;;7.55;;
39314;SDS011;28703;44.412;11.918;2023-06-24T05:56:35;10.65;;;5.82;;
39314;SDS011;28703;44.412;11.918;2023-06-24T05:59:01;12.68;;;7.47;;
39314;SDS011;28703;44.412;11.918;2023-06-24T06:01:27;20.80;;;8.50;;
39314;SDS011;28703;44.412;11.918;2023-06-24T06:03:53;20.10;;;8.95;;
39314;SDS011;28703;44.412;11.918;2023-06-24T06:06:19;8.70;;;6.20;;
39314;SDS011;28703;44.412;11.918;2023-06-24T06:08:45;14.45;;;6.95;;
39314;SDS011;28703;44.412;11.918;2023-06-24T06:11:10;17.08;;;8.38;;
39314;SDS011;28703;44.412;11.918;2023-06-24T06:13:36;12.55;;;7.75;;
39314;SDS011;28703;44.412;11.918;2023-06-24T06:16:02;11.82;;;8.13;;
39314;SDS011;28703;44.412;11.918;2023-06-24T06:18:28;21.65;;;8.93;;
39314;SDS011;28703;44.412;11.918;2023-06-24T06:20:54;20.27;;;8.35;;
39314;SDS011;28703;44.412;11.918;2023-06-24T06:23:20;10.32;;;6.80;;
39314;SDS011;28703;44.412;11.918;2023-06-24T06:25:46;18.02;;;7.43;;
39314;SDS011;28703;44.412;11.918;2023-06-24T06:28:12;19.23;;;6.55;;
39314;SDS011;28703;44.412;11.918;2023-06-24T06:30:38;18.63;;;7.88;;
39314;SDS011;28703;44.412;11.918;2023-06-24T06:33:04;20.45;;;6.75;;
39314;SDS011;28703;44.412;11.918;2023-06-24T06:35:30;15.68;;;6.53;;
39314;SDS011;28703;44.412;11.918;2023-06-24T06:37:57;16.90;;;6.80;;
39314;SDS011;28703;44.412;11.918;2023-06-24T06:40:23;11.07;;;5.72;;
39314;SDS011;28703;44.412;11.918;2023-06-24T06:42:49;14.48;;;6.50;;
39314;SDS011;28703;44.412;11.918;2023-06-24T06:45:15;15.93;;;7.22;;
39314;SDS011;28703;44.412;11.918;2023-06-24T06:47:41;12.35;;;5.90;;
39314;SDS011;28703;44.412;11.918;2023-06-24T06:50:07;15.73;;;7.32;;
39314;SDS011;28703;44.412;11.918;2023-06-24T06:52:33;15.52;;;6.38;;
39314;SDS011;28703;44.412;11.918;2023-06-24T06:54:59;11.75;;;4.55;;
39314;SDS011;28703;44.412;11.918;2023-06-24T06:57:25;13.98;;;7.15;;
39314;SDS011;28703;44.412;11.918;2023-06-24T06:59:51;9.52;;;6.15;;
39314;SDS011;28703;44.412;11.918;2023-06-24T07:02:17;12.45;;;6.07;;
39314;SDS011;28703;44.412;11.918;2023-06-24T07:04:44;12.32;;;6.18;;
39314;SDS011;28703;44.412;11.918;2023-06-24T07:07:10;12.77;;;6.10;;
39314;SDS011;28703;44.412;11.918;2023-06-24T07:09:37;10.82;;;5.57;;
39314;SDS011;28703;44.412;11.918;2023-06-24T07:12:03;8.90;;;5.20;;
39314;SDS011;28703;44.412;11.918;2023-06-24T07:14:29;11.43;;;5.30;;
39314;SDS011;28703;44.412;11.918;2023-06-24T07:16:55;15.00;;;6.18;;
39314;SDS011;28703;44.412;11.918;2023-06-24T07:19:21;13.82;;;6.10;;
39314;SDS011;28703;44.412;11.918;2023-06-24T07:21:46;9.98;;;6.20;;
39314;SDS011;28703;44.412;11.918;2023-06-24T07:24:12;10.98;;;5.88;;
39314;SDS011;28703;44.412;11.918;2023-06-24T07:26:38;15.15;;;7.97;;
39314;SDS011;28703;44.412;11.918;2023-06-24T07:29:07;12.35;;;6.05;;
39314;SDS011;28703;44.412;11.918;2023-06-24T07:31:34;8.55;;;4.75;;
39314;SDS011;28703;44.412;11.918;2023-06-24T07:34:00;10.85;;;6.05;;
39314;SDS011;28703;44.412;11.918;2023-06-24T07:36:26;12.80;;;5.32;;
39314;SDS011;28703;44.412;11.918;2023-06-24T07:38:52;15.30;;;6.05;;
39314;SDS011;28703;44.412;11.918;2023-06-24T07:41:18;8.80;;;6.07;;
39314;SDS011;28703;44.412;11.918;2023-06-24T07:43:44;7.18;;;4.57;;
39314;SDS011;28703;44.412;11.918;2023-06-24T07:46:10;13.43;;;5.50;;
39314;SDS011;28703;44.412;11.918;2023-06-24T07:48:35;12.32;;;5.30;;
39314;SDS011;28703;44.412;11.918;2023-06-24T07:51:01;13.30;;;6.25;;
39314;SDS011;28703;44.412;11.918;2023-06-24T07:53:27;9.60;;;4.40;;
39314;SDS011;28703;44.412;11.918;2023-06-24T07:55:53;14.18;;;4.97;;
39314;SDS011;28703;44.412;11.918;2023-06-24T07:58:19;8.50;;;5.13;;
39314;SDS011;28703;44.412;11.918;2023-06-24T08:00:45;9.25;;;4.45;;
39314;SDS011;28703;44.412;11.918;2023-06-24T08:03:12;9.95;;;5.47;;
39314;SDS011;28703;44.412;11.918;2023-06-24T08:05:38;10.35;;;4.47;;
39314;SDS011;28703;44.412;11.918;2023-06-24T08:08:04;15.32;;;5.28;;
39314;SDS011;28703;44.412;11.918;2023-06-24T08:10:31;10.00;;;3.97;;
39314;SDS011;28703;44.412;11.918;2023-06-24T08:12:57;11.98;;;4.88;;
39314;SDS011;28703;44.412;11.918;2023-06-24T08:15:23;9.40;;;5.30;;
39314;SDS011;28703;44.412;11.918;2023-06-24T08:17:52;6.18;;;3.72;;
39314;SDS011;28703;44.412;11.918;2023-06-24T08:20:22;13.57;;;5.18;;
39314;SDS011;28703;44.412;11.918;2023-06-24T08:22:48;10.00;;;4.37;;
39314;SDS011;28703;44.412;11.918;2023-06-24T08:25:15;6.65;;;3.90;;
39314;SDS011;28703;44.412;11.918;2023-06-24T08:27:41;11.25;;;4.22;;
39314;SDS011;28703;44.412;11.918;2023-06-24T08:30:08;6.65;;;3.53;;
39314;SDS011;28703;44.412;11.918;2023-06-24T08:32:34;4.90;;;3.55;;
39314;SDS011;28703;44.412;11.918;2023-06-24T08:35:00;6.15;;;3.67;;
39314;SDS011;28703;44.412;11.918;2023-06-24T08:37:26;4.90;;;3.38;;
39314;SDS011;28703;44.412;11.918;2023-06-24T08:39:53;5.40;;;2.85;;
39314;SDS011;28703;44.412;11.918;2023-06-24T08:42:18;10.85;;;3.22;;
39314;SDS011;28703;44.412;11.918;2023-06-24T08:44:44;4.57;;;2.75;;
39314;SDS011;28703;44.412;11.918;2023-06-24T08:47:11;5.50;;;2.58;;
39314;SDS011;28703;44.412;11.918;2023-06-24T08:49:43;5.38;;;2.83;;
39314;SDS011;28703;44.412;11.918;2023-06-24T08:52:18;13.07;;;4.13;;
39314;SDS011;28703;44.412;11.918;2023-06-24T08:54:46;3.88;;;2.60;;
39314;SDS011;28703;44.412;11.918;2023-06-24T08:57:15;8.40;;;2.70;;
39314;SDS011;28703;44.412;11.918;2023-06-24T08:59:43;6.90;;;2.08;;
39314;SDS011;28703;44.412;11.918;2023-06-24T09:02:09;12.82;;;4.00;;
39314;SDS011;28703;44.412;11.918;2023-06-24T09:04:36;4.72;;;3.20;;
39314;SDS011;28703;44.412;11.918;2023-06-24T09:07:02;4.15;;;2.22;;
39314;SDS011;28703;44.412;11.918;2023-06-24T09:09:29;6.35;;;2.22;;
39314;SDS011;28703;44.412;11.918;2023-06-24T09:11:55;3.60;;;2.13;;
39314;SDS011;28703;44.412;11.918;2023-06-24T09:14:25;8.95;;;2.80;;
39314;SDS011;28703;44.412;11.918;2023-06-24T09:16:58;4.35;;;2.55;;
39314;SDS011;28703;44.412;11.918;2023-06-24T09:19:28;2.38;;;2.17;;
39314;SDS011;28703;44.412;11.918;2023-06-24T09:22:07;4.40;;;1.98;;
39314;SDS011;28703;44.412;11.918;2023-06-24T09:24:36;2.33;;;1.77;;
39314;SDS011;28703;44.412;11.918;2023-06-24T09:27:03;3.20;;;1.63;;
39314;SDS011;28703;44.412;11.918;2023-06-24T09:29:31;1.50;;;0.98;;
39314;SDS011;28703;44.412;11.918;2023-06-24T09:31:58;4.07;;;1.67;;
39314;SDS011;28703;44.412;11.918;2023-06-24T09:34:25;2.63;;;1.23;;
39314;SDS011;28703;44.412;11.918;2023-06-24T09:36:54;2.13;;;1.38;;
39314;SDS011;28703;44.412;11.918;2023-06-24T09:39:21;1.30;;;1.20;;
39314;SDS011;28703;44.412;11.918;2023-06-24T09:41:53;2.33;;;1.20;;
39314;SDS011;28703;44.412;11.918;2023-06-24T09:44:20;2.45;;;1.40;;
39314;SDS011;28703;44.412;11.918;2023-06-24T09:46:46;39.20;;;28.45;;
39314;SDS011;28703;44.412;11.918;2023-06-24T09:49:12;2.92;;;2.35;;
39314;SDS011;28703;44.412;11.918;2023-06-24T09:51:38;6.78;;;2.67;;
39314;SDS011;28703;44.412;11.918;2023-06-24T09:54:08;3.65;;;2.33;;
39314;SDS011;28703;44.412;11.918;2023-06-24T09:59:05;4.15;;;2.42;;
39314;SDS011;28703;44.412;11.918;2023-06-24T10:01:32;2.63;;;1.40;;
39314;SDS011;28703;44.412;11.918;2023-06-24T10:04:02;1.60;;;1.40;;
39314;SDS011;28703;44.412;11.918;2023-06-24T10:06:29;0.90;;;0.90;;
39314;SDS011;28703;44.412;11.918;2023-06-24T10:08:56;3.85;;;2.78;;
39314;SDS011;28703;44.412;11.918;2023-06-24T10:11:22;2.22;;;1.63;;
39314;SDS011;28703;44.412;11.918;2023-06-24T10:13:48;1.65;;;1.10;;
39314;SDS011;28703;44.412;11.918;2023-06-24T10:16:14;0.95;;;0.95;;
39314;SDS011;28703;44.412;11.918;2023-06-24T10:18:40;1.20;;;1.10;;
39314;SDS011;28703;44.412;11.918;2023-06-24T10:21:09;1.83;;;1.00;;
39314;SDS011;28703;44.412;11.918;2023-06-24T10:23:39;0.70;;;0.70;;
39314;SDS011;28703;44.412;11.918;2023-06-24T10:26:07;3.47;;;1.10;;
39314;SDS011;28703;44.412;11.918;2023-06-24T10:32:13;1.67;;;0.80;;
39314;SDS011;28703;44.412;11.918;2023-06-24T10:37:19;0.98;;;0.90;;
39314;SDS011;28703;44.412;11.918;2023-06-24T10:42:56;1.05;;;0.60;;
39314;SDS011;28703;44.412;11.918;2023-06-24T10:47:34;1.80;;;1.58;;
39314;SDS011;28703;44.412;11.918;2023-06-24T10:50:07;2.53;;;1.40;;
39314;SDS011;28703;44.412;11.918;2023-06-24T10:52:42;1.25;;;1.02;;
39314;SDS011;28703;44.412;11.918;2023-06-24T10:55:09;3.15;;;1.77;;
39314;SDS011;28703;44.412;11.918;2023-06-24T10:57:43;2.95;;;1.08;;
39314;SDS011;28703;44.412;11.918;2023-06-24T11:00:10;2.25;;;1.10;;
39314;SDS011;28703;44.412;11.918;2023-06-24T11:02:37;5.20;;;2.10;;
39314;SDS011;28703;44.412;11.918;2023-06-24T11:05:03;2.75;;;0.98;;
39314;SDS011;28703;44.412;11.918;2023-06-24T11:07:37;2.30;;;1.00;;
39314;SDS011;28703;44.412;11.918;2023-06-24T11:10:04;2.40;;;1.25;;
39314;SDS011;28703;44.412;11.918;2023-06-24T11:12:32;2.08;;;0.63;;
39314;SDS011;28703;44.412;11.918;2023-06-24T11:15:06;1.15;;;0.98;;
39314;SDS011;28703;44.412;11.918;2023-06-24T11:17:33;1.42;;;0.90;;
39314;SDS011;28703;44.412;11.918;2023-06-24T11:20:00;3.53;;;0.90;;
39314;SDS011;28703;44.412;11.918;2023-06-24T11:22:27;1.63;;;0.80;;
39314;SDS011;28703;44.412;11.918;2023-06-24T11:24:53;1.02;;;0.82;;
39314;SDS011;28703;44.412;11.918;2023-06-24T11:27:29;3.65;;;1.73;;
39314;SDS011;28703;44.412;11.918;2023-06-24T11:29:59;1.67;;;0.93;;
39314;SDS011;28703;44.412;11.918;2023-06-24T11:32:37;2.22;;;1.23;;
39314;SDS011;28703;44.412;11.918;2023-06-24T11:35:13;2.67;;;0.90;;
39314;SDS011;28703;44.412;11.918;2023-06-24T11:37:43;2.30;;;0.88;;
39314;SDS011;28703;44.412;11.918;2023-06-24T11:40:12;1.35;;;0.60;;
39314;SDS011;28703;44.412;11.918;2023-06-24T11:42:44;0.77;;;0.77;;
39314;SDS011;28703;44.412;11.918;2023-06-24T11:45:58;1.55;;;0.70;;
39314;SDS011;28703;44.412;11.918;2023-06-24T11:53:40;0.73;;;0.73;;
39314;SDS011;28703;44.412;11.918;2023-06-24T12:01:24;7.57;;;1.05;;
39314;SDS011;28703;44.412;11.918;2023-06-24T12:08:05;0.82;;;0.75;;
39314;SDS011;28703;44.412;11.918;2023-06-24T12:10:49;0.70;;;0.70;;
39314;SDS011;28703;44.412;11.918;2023-06-24T12:13:15;2.13;;;1.40;;
39314;SDS011;28703;44.412;11.918;2023-06-24T12:15:41;1.38;;;0.95;;
39314;SDS011;28703;44.412;11.918;2023-06-24T12:18:07;0.95;;;0.70;;
39314;SDS011;28703;44.412;11.918;2023-06-24T12:20:33;2.25;;;0.88;;
39314;SDS011;28703;44.412;11.918;2023-06-24T12:22:59;0.88;;;0.70;;
39314;SDS011;28703;44.412;11.918;2023-06-24T12:25:25;3.97;;;0.73;;
39314;SDS011;28703;44.412;11.918;2023-06-24T12:27:51;1.42;;;0.43;;
39314;SDS011;28703;44.412;11.918;2023-06-24T12:30:17;3.65;;;0.80;;
39314;SDS011;28703;44.412;11.918;2023-06-24T12:32:43;6.95;;;0.90;;
39314;SDS011;28703;44.412;11.918;2023-06-24T12:35:10;3.72;;;0.60;;
39314;SDS011;28703;44.412;11.918;2023-06-24T12:37:36;0.70;;;0.70;;
39314;SDS011;28703;44.412;11.918;2023-06-24T12:40:02;0.68;;;0.68;;
39314;SDS011;28703;44.412;11.918;2023-06-24T12:42:29;1.48;;;0.60;;
39314;SDS011;28703;44.412;11.918;2023-06-24T12:44:55;2.25;;;0.65;;
39314;SDS011;28703;44.412;11.918;2023-06-24T12:47:22;0.73;;;0.73;;
39314;SDS011;28703;44.412;11.918;2023-06-24T12:49:48;8.23;;;0.80;;
39314;SDS011;28703;44.412;11.918;2023-06-24T12:52:14;0.50;;;0.50;;
39314;SDS011;28703;44.412;11.918;2023-06-24T12:54:41;9.82;;;1.00;;
39314;SDS011;28703;44.412;11.918;2023-06-24T12:57:07;2.38;;;0.63;;
39314;SDS011;28703;44.412;11.918;2023-06-24T12:59:33;0.47;;;0.40;;
39314;SDS011;28703;44.412;11.918;2023-06-24T13:01:58;3.33;;;0.82;;
39314;SDS011;28703;44.412;11.918;2023-06-24T13:04:25;2.20;;;0.80;;
39314;SDS011;28703;44.412;11.918;2023-06-24T13:06:52;1.92;;;0.60;;
39314;SDS011;28703;44.412;11.918;2023-06-24T13:09:18;0.70;;;0.70;;
39314;SDS011;28703;44.412;11.918;2023-06-24T13:11:44;1.27;;;0.98;;
39314;SDS011;28703;44.412;11.918;2023-06-24T13:14:11;0.70;;;0.60;;
39314;SDS011;28703;44.412;11.918;2023-06-24T13:16:38;0.50;;;0.50;;
39314;SDS011;28703;44.412;11.918;2023-06-24T13:19:04;3.63;;;0.95;;
39314;SDS011;28703;44.412;11.918;2023-06-24T13:21:30;0.40;;;0.40;;
39314;SDS011;28703;44.412;11.918;2023-06-24T13:23:56;0.55;;;0.55;;
39314;SDS011;28703;44.412;11.918;2023-06-24T13:26:22;0.50;;;0.50;;
39314;SDS011;28703;44.412;11.918;2023-06-24T13:28:49;1.23;;;0.75;;
39314;SDS011;28703;44.412;11.918;2023-06-24T13:31:15;0.60;;;0.60;;
39314;SDS011;28703;44.412;11.918;2023-06-24T13:33:41;0.60;;;0.60;;
39314;SDS011;28703;44.412;11.918;2023-06-24T13:36:08;1.20;;;0.70;;
39314;SDS011;28703;44.412;11.918;2023-06-24T13:38:53;7.72;;;0.70;;
39314;SDS011;28703;44.412;11.918;2023-06-24T13:41:19;1.20;;;1.05;;
39314;SDS011;28703;44.412;11.918;2023-06-24T13:43:44;0.98;;;0.90;;
39314;SDS011;28703;44.412;11.918;2023-06-24T13:46:11;0.88;;;0.85;;
39314;SDS011;28703;44.412;11.918;2023-06-24T13:48:37;1.05;;;1.00;;
39314;SDS011;28703;44.412;11.918;2023-06-24T13:51:03;1.70;;;0.70;;
39314;SDS011;28703;44.412;11.918;2023-06-24T13:53:28;0.88;;;0.88;;
39314;SDS011;28703;44.412;11.918;2023-06-24T13:55:54;1.00;;;0.70;;
39314;SDS011;28703;44.412;11.918;2023-06-24T13:58:20;0.60;;;0.60;;
39314;SDS011;28703;44.412;11.918;2023-06-24T14:00:46;0.85;;;0.77;;
39314;SDS011;28703;44.412;11.918;2023-06-24T14:03:11;1.52;;;1.08;;
39314;SDS011;28703;44.412;11.918;2023-06-24T14:05:37;0.40;;;0.40;;
39314;SDS011;28703;44.412;11.918;2023-06-24T14:08:03;0.95;;;0.80;;
39314;SDS011;28703;44.412;11.918;2023-06-24T14:10:29;0.98;;;0.57;;
39314;SDS011;28703;44.412;11.918;2023-06-24T14:12:55;4.22;;;0.50;;
39314;SDS011;28703;44.412;11.918;2023-06-24T14:15:21;0.85;;;0.77;;
39314;SDS011;28703;44.412;11.918;2023-06-24T14:17:47;0.65;;;0.65;;
39314;SDS011;28703;44.412;11.918;2023-06-24T14:20:13;0.93;;;0.50;;
39314;SDS011;28703;44.412;11.918;2023-06-24T14:22:39;0.93;;;0.60;;
39314;SDS011;28703;44.412;11.918;2023-06-24T14:25:05;0.93;;;0.55;;
39314;SDS011;28703;44.412;11.918;2023-06-24T14:27:31;0.70;;;0.70;;
39314;SDS011;28703;44.412;11.918;2023-06-24T14:29:57;0.50;;;0.50;;
39314;SDS011;28703;44.412;11.918;2023-06-24T14:32:23;1.23;;;0.70;;
39314;SDS011;28703;44.412;11.918;2023-06-24T14:34:49;3.20;;;0.80;;
39314;SDS011;28703;44.412;11.918;2023-06-24T14:37:15;0.85;;;0.80;;
39314;SDS011;28703;44.412;11.918;2023-06-24T14:39:40;1.83;;;1.38;;
39314;SDS011;28703;44.412;11.918;2023-06-24T14:42:06;1.10;;;1.00;;
39314;SDS011;28703;44.412;11.918;2023-06-24T14:44:32;3.22;;;0.73;;
39314;SDS011;28703;44.412;11.918;2023-06-24T14:46:58;3.13;;;1.05;;
39314;SDS011;28703;44.412;11.918;2023-06-24T14:49:24;0.85;;;0.80;;
39314;SDS011;28703;44.412;11.918;2023-06-24T14:51:51;0.90;;;0.90;;
39314;SDS011;28703;44.412;11.918;2023-06-24T14:54:17;2.92;;;1.00;;
39314;SDS011;28703;44.412;11.918;2023-06-24T14:56:44;1.42;;;1.27;;
39314;SDS011;28703;44.412;11.918;2023-06-24T14:59:10;1.42;;;1.33;;
39314;SDS011;28703;44.412;11.918;2023-06-24T15:01:36;1.55;;;1.45;;
39314;SDS011;28703;44.412;11.918;2023-06-24T15:04:03;1.02;;;0.88;;
39314;SDS011;28703;44.412;11.918;2023-06-24T15:06:29;1.58;;;0.98;;
39314;SDS011;28703;44.412;11.918;2023-06-24T15:08:54;2.05;;;1.13;;